Surface observations / Quebec / CYHU (71371)

Quebec | Canada | USA | France | UK | Europe | Elsewhere

Display: Info & Location for CYHU (71371) | Help decoding METAR

CYHU MONTREAL/ST HUBERT A QB CN
Raw surface observations for station CYHU
CYHU 291200Z AUTO 23009KT 9SM CLR M07/M14 A3020 RMK SLP228=
CYHU 291100Z AUTO 22006KT 9SM CLR M08/M13 A3019 RMK SLP223=
CYHU 291000Z AUTO 22005KT 9SM CLR M08/M13 A3017 RMK SLP217=
CYHU 290900Z AUTO 23004KT 9SM CLR M08/M14 A3015 RMK SLP210=
CYHU 290800Z AUTO VRB02KT 9SM CLR M07/M14 A3014 RMK SLP207=
CYHU 290700Z AUTO 30006KT 9SM CLR M06/M15 A3013 RMK SLP204=
CYHU 290600Z AUTO 29007KT 9SM CLR M06/M14 A3012 RMK SLP202=
CYHU 290500Z AUTO 30006KT 9SM CLR M05/M14 A3011 RMK SLP200=
CYHU 290400Z AUTO 30006KT 9SM CLR M04/M14 A3011 RMK SLP197=
CYHU 290300Z AUTO 26005KT 9SM CLR M05/M12 A3010 RMK SLP196=
CYHU 290200Z AUTO 23004KT 9SM CLR M05/M11 A3009 RMK SLP191=
CYHU 290100Z AUTO 23007KT 9SM CLR M04/M13 A3007 RMK SLP183=
CYHU 290000Z AUTO 24009KT 9SM CLR M04/M13 A3004 RMK SLP175=
CYHU 282300Z AUTO 25011KT 9SM CLR M03/M14 A3002 RMK SLP168=
CYHU 282200Z AUTO 24011KT 9SM CLR M02/M13 A3000 RMK SLP161=
CYHU 282100Z AUTO 29006KT 240V030 9SM CLR M02/M18 A3000 RMK SLP159=
CYHU 282000Z AUTO 34005KT 9SM CLR M03/M18 A3001 RMK SLP162=
CYHU 281900Z AUTO 36009KT 9SM CLR M03/M15 A3001 RMK SLP163=
CYHU 281800Z AUTO 36010G15KT 9SM CLR M04/M17 A3003 RMK SLP169=
CYHU 281700Z AUTO 02005KT 350V060 9SM CLR M06/M17 A3005 RMK SLP178=
CYHU 281600Z AUTO 03006KT 350V060 9SM CLR M06/M16 A3006 RMK SLP181=
CYHU 281500Z AUTO 02011KT 9SM CLR M07/M16 A3006 RMK SLP182=
CYHU 281400Z AUTO 36011G16KT 9SM CLR M07/M15 A3006 RMK SLP181=
CYHU 281300Z AUTO 36014KT 9SM BKN085 M09/M18 A3005 RMK SLP178=
CYHU 281200Z AUTO 36011G17KT 9SM FEW050 OVC080 M09/M15 A3005 RMK SLP176=